sensor_id;sensor_type;location;lat;lon;timestamp;temperature;humidity
18898;DHT22;9581;49.484;8.556;2023-06-26T00:01:58;23.10;97.70
18898;DHT22;9581;49.484;8.556;2023-06-26T00:04:25;23.20;97.70
18898;DHT22;9581;49.484;8.556;2023-06-26T00:06:52;23.10;97.60
18898;DHT22;9581;49.484;8.556;2023-06-26T00:09:20;23.10;97.30
18898;DHT22;9581;49.484;8.556;2023-06-26T00:11:47;23.20;97.50
18898;DHT22;9581;49.484;8.556;2023-06-26T00:14:14;22.90;97.50
18898;DHT22;9581;49.484;8.556;2023-06-26T00:16:41;22.80;98.30
18898;DHT22;9581;49.484;8.556;2023-06-26T00:19:08;22.80;98.40
18898;DHT22;9581;49.484;8.556;2023-06-26T00:21:35;22.80;98.30
18898;DHT22;9581;49.484;8.556;2023-06-26T00:24:02;22.90;98.60
18898;DHT22;9581;49.484;8.556;2023-06-26T00:26:30;22.80;99.10
18898;DHT22;9581;49.484;8.556;2023-06-26T00:28:57;22.70;99.20
18898;DHT22;9581;49.484;8.556;2023-06-26T00:31:24;22.60;99.90
18898;DHT22;9581;49.484;8.556;2023-06-26T00:33:51;22.50;99.80
18898;DHT22;9581;49.484;8.556;2023-06-26T00:36:18;22.80;99.50
18898;DHT22;9581;49.484;8.556;2023-06-26T00:38:45;22.50;99.50
18898;DHT22;9581;49.484;8.556;2023-06-26T00:41:11;22.40;99.90
18898;DHT22;9581;49.484;8.556;2023-06-26T00:43:40;22.50;99.90
18898;DHT22;9581;49.484;8.556;2023-06-26T00:46:09;22.60;99.90
18898;DHT22;9581;49.484;8.556;2023-06-26T00:48:36;22.50;99.90
18898;DHT22;9581;49.484;8.556;2023-06-26T00:51:04;22.70;99.90
18898;DHT22;9581;49.484;8.556;2023-06-26T00:53:31;22.40;99.90
18898;DHT22;9581;49.484;8.556;2023-06-26T00:55:59;22.40;99.90
18898;DHT22;9581;49.484;8.556;2023-06-26T00:58:26;22.50;99.90
18898;DHT22;9581;49.484;8.556;2023-06-26T01:00:54;22.50;99.90
18898;DHT22;9581;49.484;8.556;2023-06-26T01:03:22;22.40;99.90
18898;DHT22;9581;49.484;8.556;2023-06-26T01:05:50;22.20;99.90
18898;DHT22;9581;49.484;8.556;2023-06-26T01:08:18;22.30;99.90
18898;DHT22;9581;49.484;8.556;2023-06-26T01:10:45;22.30;99.90
18898;DHT22;9581;49.484;8.556;2023-06-26T01:13:14;22.30;99.90
18898;DHT22;9581;49.484;8.556;2023-06-26T01:15:41;22.40;99.90
18898;DHT22;9581;49.484;8.556;2023-06-26T01:18:09;22.40;99.90
18898;DHT22;9581;49.484;8.556;2023-06-26T01:20:37;22.40;99.90
18898;DHT22;9581;49.484;8.556;2023-06-26T01:23:12;22.30;99.90
18898;DHT22;9581;49.484;8.556;2023-06-26T01:25:49;22.10;99.90
18898;DHT22;9581;49.484;8.556;2023-06-26T01:28:19;22.10;99.90
18898;DHT22;9581;49.484;8.556;2023-06-26T01:30:47;22.10;99.90
18898;DHT22;9581;49.484;8.556;2023-06-26T01:33:14;22.00;99.90
18898;DHT22;9581;49.484;8.556;2023-06-26T01:35:41;22.10;99.90
18898;DHT22;9581;49.484;8.556;2023-06-26T01:38:12;22.10;99.90
18898;DHT22;9581;49.484;8.556;2023-06-26T01:40:39;22.00;99.90
18898;DHT22;9581;49.484;8.556;2023-06-26T01:43:07;22.00;99.90
18898;DHT22;9581;49.484;8.556;2023-06-26T01:45:39;22.10;99.90
18898;DHT22;9581;49.484;8.556;2023-06-26T01:48:06;21.80;99.90
18898;DHT22;9581;49.484;8.556;2023-06-26T01:50:37;21.80;99.90
18898;DHT22;9581;49.484;8.556;2023-06-26T01:53:10;21.60;99.90
18898;DHT22;9581;49.484;8.556;2023-06-26T01:55:41;21.50;99.90
18898;DHT22;9581;49.484;8.556;2023-06-26T01:58:10;21.10;99.90
18898;DHT22;9581;49.484;8.556;2023-06-26T02:00:38;21.30;99.90
18898;DHT22;9581;49.484;8.556;2023-06-26T02:03:05;21.60;99.90
18898;DHT22;9581;49.484;8.556;2023-06-26T02:05:32;21.70;99.90
18898;DHT22;9581;49.484;8.556;2023-06-26T02:07:59;21.60;99.90
18898;DHT22;9581;49.484;8.556;2023-06-26T02:10:26;21.60;99.90
18898;DHT22;9581;49.484;8.556;2023-06-26T02:12:53;21.60;99.90
18898;DHT22;9581;49.484;8.556;2023-06-26T02:15:20;21.30;99.90
18898;DHT22;9581;49.484;8.556;2023-06-26T02:17:48;21.50;99.90
18898;DHT22;9581;49.484;8.556;2023-06-26T02:20:15;21.40;99.90
18898;DHT22;9581;49.484;8.556;2023-06-26T02:22:42;21.50;99.90
18898;DHT22;9581;49.484;8.556;2023-06-26T02:25:09;21.50;99.90
18898;DHT22;9581;49.484;8.556;2023-06-26T02:27:36;21.50;99.90
18898;DHT22;9581;49.484;8.556;2023-06-26T02:30:03;21.30;99.90
18898;DHT22;9581;49.484;8.556;2023-06-26T02:32:30;21.30;99.90
18898;DHT22;9581;49.484;8.556;2023-06-26T02:35:18;21.40;99.90
18898;DHT22;9581;49.484;8.556;2023-06-26T02:37:45;21.10;99.90
18898;DHT22;9581;49.484;8.556;2023-06-26T02:40:12;21.50;99.90
18898;DHT22;9581;49.484;8.556;2023-06-26T02:42:39;21.30;99.90
18898;DHT22;9581;49.484;8.556;2023-06-26T02:45:06;21.40;99.90
18898;DHT22;9581;49.484;8.556;2023-06-26T02:47:33;21.20;99.90
18898;DHT22;9581;49.484;8.556;2023-06-26T02:50:00;21.10;99.90
18898;DHT22;9581;49.484;8.556;2023-06-26T02:52:28;21.30;99.90
18898;DHT22;9581;49.484;8.556;2023-06-26T02:54:55;21.50;99.90
18898;DHT22;9581;49.484;8.556;2023-06-26T02:57:22;21.70;99.90
18898;DHT22;9581;49.484;8.556;2023-06-26T02:59:49;21.80;99.90
18898;DHT22;9581;49.484;8.556;2023-06-26T03:02:15;21.80;99.90
18898;DHT22;9581;49.484;8.556;2023-06-26T03:04:42;21.80;99.90
18898;DHT22;9581;49.484;8.556;2023-06-26T03:07:09;21.80;99.90
18898;DHT22;9581;49.484;8.556;2023-06-26T03:09:37;21.80;99.90
18898;DHT22;9581;49.484;8.556;2023-06-26T03:12:04;21.50;99.90
18898;DHT22;9581;49.484;8.556;2023-06-26T03:14:31;21.10;99.90
18898;DHT22;9581;49.484;8.556;2023-06-26T03:16:58;21.20;99.90
18898;DHT22;9581;49.484;8.556;2023-06-26T03:19:28;21.20;99.90
18898;DHT22;9581;49.484;8.556;2023-06-26T03:21:55;21.40;99.90
18898;DHT22;9581;49.484;8.556;2023-06-26T03:24:22;21.40;99.90
18898;DHT22;9581;49.484;8.556;2023-06-26T03:26:50;21.50;99.90
18898;DHT22;9581;49.484;8.556;2023-06-26T03:29:17;21.70;99.90
18898;DHT22;9581;49.484;8.556;2023-06-26T03:31:44;21.60;99.90
18898;DHT22;9581;49.484;8.556;2023-06-26T03:34:11;21.60;99.90
18898;DHT22;9581;49.484;8.556;2023-06-26T03:36:38;21.70;99.90
18898;DHT22;9581;49.484;8.556;2023-06-26T03:39:04;21.70;99.90
18898;DHT22;9581;49.484;8.556;2023-06-26T03:41:31;21.60;99.90
18898;DHT22;9581;49.484;8.556;2023-06-26T03:43:59;21.70;99.90
18898;DHT22;9581;49.484;8.556;2023-06-26T03:46:27;21.60;99.90
18898;DHT22;9581;49.484;8.556;2023-06-26T03:48:54;21.60;99.90
18898;DHT22;9581;49.484;8.556;2023-06-26T03:51:21;21.60;99.90
18898;DHT22;9581;49.484;8.556;2023-06-26T03:53:47;21.70;99.90
18898;DHT22;9581;49.484;8.556;2023-06-26T03:56:14;21.70;99.90
18898;DHT22;9581;49.484;8.556;2023-06-26T03:58:41;21.70;99.90
18898;DHT22;9581;49.484;8.556;2023-06-26T04:01:09;21.60;99.90
18898;DHT22;9581;49.484;8.556;2023-06-26T04:03:36;21.40;99.90
18898;DHT22;9581;49.484;8.556;2023-06-26T04:06:06;21.50;99.90
18898;DHT22;9581;49.484;8.556;2023-06-26T04:08:35;21.60;99.90
18898;DHT22;9581;49.484;8.556;2023-06-26T04:11:02;21.60;99.90
18898;DHT22;9581;49.484;8.556;2023-06-26T04:13:28;21.50;99.90
18898;DHT22;9581;49.484;8.556;2023-06-26T04:15:55;21.60;99.90
18898;DHT22;9581;49.484;8.556;2023-06-26T04:18:23;21.50;99.90
18898;DHT22;9581;49.484;8.556;2023-06-26T04:21:08;21.50;99.90
18898;DHT22;9581;49.484;8.556;2023-06-26T04:23:37;21.50;99.90
18898;DHT22;9581;49.484;8.556;2023-06-26T04:26:04;21.50;99.90
18898;DHT22;9581;49.484;8.556;2023-06-26T04:28:31;21.60;99.90
18898;DHT22;9581;49.484;8.556;2023-06-26T04:30:58;21.60;99.90
18898;DHT22;9581;49.484;8.556;2023-06-26T04:33:26;21.60;99.90
18898;DHT22;9581;49.484;8.556;2023-06-26T04:35:53;21.60;99.90
18898;DHT22;9581;49.484;8.556;2023-06-26T04:38:20;21.60;99.90
18898;DHT22;9581;49.484;8.556;2023-06-26T04:40:47;21.60;99.90
18898;DHT22;9581;49.484;8.556;2023-06-26T04:43:14;21.60;99.90
18898;DHT22;9581;49.484;8.556;2023-06-26T04:45:41;21.70;99.90
18898;DHT22;9581;49.484;8.556;2023-06-26T04:48:08;21.60;99.90
18898;DHT22;9581;49.484;8.556;2023-06-26T04:50:36;21.60;99.90
18898;DHT22;9581;49.484;8.556;2023-06-26T04:53:03;21.70;99.90
18898;DHT22;9581;49.484;8.556;2023-06-26T04:55:30;21.80;99.90
18898;DHT22;9581;49.484;8.556;2023-06-26T04:57:57;21.70;99.90
18898;DHT22;9581;49.484;8.556;2023-06-26T05:00:23;21.60;99.90
18898;DHT22;9581;49.484;8.556;2023-06-26T05:02:50;21.70;99.90
18898;DHT22;9581;49.484;8.556;2023-06-26T05:05:24;21.80;99.90
18898;DHT22;9581;49.484;8.556;2023-06-26T05:07:53;21.90;99.90
18898;DHT22;9581;49.484;8.556;2023-06-26T05:10:20;21.90;99.90
18898;DHT22;9581;49.484;8.556;2023-06-26T05:12:47;22.00;99.90
18898;DHT22;9581;49.484;8.556;2023-06-26T05:15:14;21.90;99.90
18898;DHT22;9581;49.484;8.556;2023-06-26T05:17:41;21.90;99.90
18898;DHT22;9581;49.484;8.556;2023-06-26T05:20:09;22.00;99.90
18898;DHT22;9581;49.484;8.556;2023-06-26T05:22:37;22.10;99.90
18898;DHT22;9581;49.484;8.556;2023-06-26T05:25:08;22.10;99.90
18898;DHT22;9581;49.484;8.556;2023-06-26T05:27:35;22.20;99.90
18898;DHT22;9581;49.484;8.556;2023-06-26T05:30:03;22.20;99.90
18898;DHT22;9581;49.484;8.556;2023-06-26T05:32:30;22.20;99.90
18898;DHT22;9581;49.484;8.556;2023-06-26T05:35:02;22.20;99.90
18898;DHT22;9581;49.484;8.556;2023-06-26T05:37:31;22.30;99.90
18898;DHT22;9581;49.484;8.556;2023-06-26T05:39:58;22.30;99.90
18898;DHT22;9581;49.484;8.556;2023-06-26T05:42:28;22.40;99.90
18898;DHT22;9581;49.484;8.556;2023-06-26T05:44:55;22.40;99.90
18898;DHT22;9581;49.484;8.556;2023-06-26T05:47:22;22.50;99.90
18898;DHT22;9581;49.484;8.556;2023-06-26T05:49:49;22.50;99.90
18898;DHT22;9581;49.484;8.556;2023-06-26T05:52:16;22.50;99.90
18898;DHT22;9581;49.484;8.556;2023-06-26T05:54:43;22.50;99.90
18898;DHT22;9581;49.484;8.556;2023-06-26T05:57:12;22.50;99.90
18898;DHT22;9581;49.484;8.556;2023-06-26T05:59:42;22.60;99.90
18898;DHT22;9581;49.484;8.556;2023-06-26T06:02:09;22.60;99.90
18898;DHT22;9581;49.484;8.556;2023-06-26T06:04:36;22.60;99.90
18898;DHT22;9581;49.484;8.556;2023-06-26T06:07:03;22.70;99.90
18898;DHT22;9581;49.484;8.556;2023-06-26T06:09:30;22.70;99.90
18898;DHT22;9581;49.484;8.556;2023-06-26T06:11:58;22.90;99.90
18898;DHT22;9581;49.484;8.556;2023-06-26T06:14:25;22.80;99.90
18898;DHT22;9581;49.484;8.556;2023-06-26T06:16:53;22.90;99.90
18898;DHT22;9581;49.484;8.556;2023-06-26T06:19:19;22.90;99.90
18898;DHT22;9581;49.484;8.556;2023-06-26T06:21:46;22.90;99.90
18898;DHT22;9581;49.484;8.556;2023-06-26T06:24:13;23.00;99.90
18898;DHT22;9581;49.484;8.556;2023-06-26T06:26:40;23.00;99.90
18898;DHT22;9581;49.484;8.556;2023-06-26T06:29:06;23.10;99.90
18898;DHT22;9581;49.484;8.556;2023-06-26T06:31:33;23.10;99.90
18898;DHT22;9581;49.484;8.556;2023-06-26T06:34:01;23.20;99.90
18898;DHT22;9581;49.484;8.556;2023-06-26T06:36:28;23.20;99.90
18898;DHT22;9581;49.484;8.556;2023-06-26T06:38:55;23.40;99.90
18898;DHT22;9581;49.484;8.556;2023-06-26T06:41:22;23.40;99.90
18898;DHT22;9581;49.484;8.556;2023-06-26T06:43:49;23.50;99.90
18898;DHT22;9581;49.484;8.556;2023-06-26T06:46:16;23.60;99.90
18898;DHT22;9581;49.484;8.556;2023-06-26T06:48:42;23.60;99.90
18898;DHT22;9581;49.484;8.556;2023-06-26T06:51:11;23.70;99.90
18898;DHT22;9581;49.484;8.556;2023-06-26T06:53:37;23.70;99.90
18898;DHT22;9581;49.484;8.556;2023-06-26T06:56:04;23.80;99.90
18898;DHT22;9581;49.484;8.556;2023-06-26T06:58:31;23.90;99.90
18898;DHT22;9581;49.484;8.556;2023-06-26T07:00:59;24.00;99.90
18898;DHT22;9581;49.484;8.556;2023-06-26T07:03:28;24.30;99.90
18898;DHT22;9581;49.484;8.556;2023-06-26T07:05:55;24.30;99.90
18898;DHT22;9581;49.484;8.556;2023-06-26T07:08:23;24.20;99.90
18898;DHT22;9581;49.484;8.556;2023-06-26T07:10:50;24.30;99.90
18898;DHT22;9581;49.484;8.556;2023-06-26T07:13:17;24.40;99.90
18898;DHT22;9581;49.484;8.556;2023-06-26T07:15:45;24.60;99.90
18898;DHT22;9581;49.484;8.556;2023-06-26T07:18:13;24.80;99.90
18898;DHT22;9581;49.484;8.556;2023-06-26T07:20:40;24.90;99.90
18898;DHT22;9581;49.484;8.556;2023-06-26T07:23:07;25.10;99.90
18898;DHT22;9581;49.484;8.556;2023-06-26T07:25:35;25.30;99.80
18898;DHT22;9581;49.484;8.556;2023-06-26T07:28:02;25.40;99.50
18898;DHT22;9581;49.484;8.556;2023-06-26T07:30:28;25.40;99.20
18898;DHT22;9581;49.484;8.556;2023-06-26T07:32:55;25.60;99.80
18898;DHT22;9581;49.484;8.556;2023-06-26T07:35:22;25.70;99.30
18898;DHT22;9581;49.484;8.556;2023-06-26T07:37:50;25.80;98.60
18898;DHT22;9581;49.484;8.556;2023-06-26T07:40:17;25.90;98.30
18898;DHT22;9581;49.484;8.556;2023-06-26T07:42:45;26.00;98.40
18898;DHT22;9581;49.484;8.556;2023-06-26T07:45:13;26.00;97.90
18898;DHT22;9581;49.484;8.556;2023-06-26T07:47:40;26.30;98.10
18898;DHT22;9581;49.484;8.556;2023-06-26T07:50:07;26.10;97.60
18898;DHT22;9581;49.484;8.556;2023-06-26T07:52:34;26.40;97.60
18898;DHT22;9581;49.484;8.556;2023-06-26T07:55:01;26.60;97.40
18898;DHT22;9581;49.484;8.556;2023-06-26T07:57:29;26.50;97.10
18898;DHT22;9581;49.484;8.556;2023-06-26T07:59:58;27.00;97.80
18898;DHT22;9581;49.484;8.556;2023-06-26T08:02:25;26.80;96.30
18898;DHT22;9581;49.484;8.556;2023-06-26T08:04:52;27.00;96.90
18898;DHT22;9581;49.484;8.556;2023-06-26T08:07:19;27.00;96.60
18898;DHT22;9581;49.484;8.556;2023-06-26T08:09:45;26.60;96.80
18898;DHT22;9581;49.484;8.556;2023-06-26T08:12:12;26.70;96.60
18898;DHT22;9581;49.484;8.556;2023-06-26T08:14:39;26.90;97.10
18898;DHT22;9581;49.484;8.556;2023-06-26T08:17:07;26.80;96.60
18898;DHT22;9581;49.484;8.556;2023-06-26T08:19:34;27.00;96.90
18898;DHT22;9581;49.484;8.556;2023-06-26T08:22:01;27.20;96.40
18898;DHT22;9581;49.484;8.556;2023-06-26T08:24:27;27.30;96.30
18898;DHT22;9581;49.484;8.556;2023-06-26T08:26:54;27.30;96.60
18898;DHT22;9581;49.484;8.556;2023-06-26T08:29:21;27.50;96.40
18898;DHT22;9581;49.484;8.556;2023-06-26T08:31:48;27.40;96.70
18898;DHT22;9581;49.484;8.556;2023-06-26T08:34:16;27.30;95.70
18898;DHT22;9581;49.484;8.556;2023-06-26T08:36:43;27.20;96.10
18898;DHT22;9581;49.484;8.556;2023-06-26T08:39:10;27.20;95.70
18898;DHT22;9581;49.484;8.556;2023-06-26T08:41:37;27.20;96.20
18898;DHT22;9581;49.484;8.556;2023-06-26T08:44:04;27.40;96.80
18898;DHT22;9581;49.484;8.556;2023-06-26T08:46:31;27.60;96.50
18898;DHT22;9581;49.484;8.556;2023-06-26T08:49:02;27.60;95.80
18898;DHT22;9581;49.484;8.556;2023-06-26T08:51:34;27.40;96.70
18898;DHT22;9581;49.484;8.556;2023-06-26T08:54:06;27.60;97.30
18898;DHT22;9581;49.484;8.556;2023-06-26T08:56:37;27.70;97.20
18898;DHT22;9581;49.484;8.556;2023-06-26T08:59:07;27.90;97.00
18898;DHT22;9581;49.484;8.556;2023-06-26T09:01:36;27.70;97.10
18898;DHT22;9581;49.484;8.556;2023-06-26T09:04:03;27.90;96.40
18898;DHT22;9581;49.484;8.556;2023-06-26T09:06:31;28.00;96.40
18898;DHT22;9581;49.484;8.556;2023-06-26T09:08:58;28.10;95.50
18898;DHT22;9581;49.484;8.556;2023-06-26T09:11:25;27.90;95.40
18898;DHT22;9581;49.484;8.556;2023-06-26T09:13:52;28.00;95.00
18898;DHT22;9581;49.484;8.556;2023-06-26T09:16:24;28.20;95.40
18898;DHT22;9581;49.484;8.556;2023-06-26T09:18:53;28.40;94.60
18898;DHT22;9581;49.484;8.556;2023-06-26T09:21:19;28.40;94.10
18898;DHT22;9581;49.484;8.556;2023-06-26T09:23:49;28.40;96.10
18898;DHT22;9581;49.484;8.556;2023-06-26T09:26:16;28.40;94.90
18898;DHT22;9581;49.484;8.556;2023-06-26T09:28:43;28.70;94.80
18898;DHT22;9581;49.484;8.556;2023-06-26T09:31:10;28.80;93.30
18898;DHT22;9581;49.484;8.556;2023-06-26T09:33:37;28.90;93.10
18898;DHT22;9581;49.484;8.556;2023-06-26T09:36:05;28.90;92.80
18898;DHT22;9581;49.484;8.556;2023-06-26T09:38:34;29.00;93.70
18898;DHT22;9581;49.484;8.556;2023-06-26T09:41:03;29.10;94.10
18898;DHT22;9581;49.484;8.556;2023-06-26T09:43:30;29.20;93.60
18898;DHT22;9581;49.484;8.556;2023-06-26T09:45:58;29.30;92.70
18898;DHT22;9581;49.484;8.556;2023-06-26T09:48:25;29.40;92.70
18898;DHT22;9581;49.484;8.556;2023-06-26T09:50:51;29.20;92.00
18898;DHT22;9581;49.484;8.556;2023-06-26T09:53:20;29.30;92.90
18898;DHT22;9581;49.484;8.556;2023-06-26T09:55:47;29.50;93.20
18898;DHT22;9581;49.484;8.556;2023-06-26T09:58:15;29.50;92.00
18898;DHT22;9581;49.484;8.556;2023-06-26T10:00:43;29.20;91.90
18898;DHT22;9581;49.484;8.556;2023-06-26T10:03:10;29.40;92.80
18898;DHT22;9581;49.484;8.556;2023-06-26T10:05:38;29.40;92.10
18898;DHT22;9581;49.484;8.556;2023-06-26T10:08:05;29.40;92.00
18898;DHT22;9581;49.484;8.556;2023-06-26T10:10:33;29.50;92.40
18898;DHT22;9581;49.484;8.556;2023-06-26T10:13:04;29.50;91.80
18898;DHT22;9581;49.484;8.556;2023-06-26T10:15:35;29.40;92.00
18898;DHT22;9581;49.484;8.556;2023-06-26T10:18:03;29.30;92.30
18898;DHT22;9581;49.484;8.556;2023-06-26T10:20:30;29.20;92.10
18898;DHT22;9581;49.484;8.556;2023-06-26T10:23:00;29.00;92.00
18898;DHT22;9581;49.484;8.556;2023-06-26T10:25:29;29.00;93.30
18898;DHT22;9581;49.484;8.556;2023-06-26T10:28:00;28.90;91.80
18898;DHT22;9581;49.484;8.556;2023-06-26T10:30:31;28.80;92.70
18898;DHT22;9581;49.484;8.556;2023-06-26T10:33:01;28.70;92.70
18898;DHT22;9581;49.484;8.556;2023-06-26T10:35:30;28.70;93.40
18898;DHT22;9581;49.484;8.556;2023-06-26T10:38:00;28.60;93.20
18898;DHT22;9581;49.484;8.556;2023-06-26T10:40:40;28.50;93.50
18898;DHT22;9581;49.484;8.556;2023-06-26T10:43:08;28.50;93.80
18898;DHT22;9581;49.484;8.556;2023-06-26T10:45:35;28.40;92.90
18898;DHT22;9581;49.484;8.556;2023-06-26T10:48:03;28.50;93.40
18898;DHT22;9581;49.484;8.556;2023-06-26T10:50:31;28.50;94.00
18898;DHT22;9581;49.484;8.556;2023-06-26T10:53:11;28.50;94.20
18898;DHT22;9581;49.484;8.556;2023-06-26T10:55:41;28.50;92.70
18898;DHT22;9581;49.484;8.556;2023-06-26T10:58:27;28.50;93.00
18898;DHT22;9581;49.484;8.556;2023-06-26T11:01:14;28.60;93.80
18898;DHT22;9581;49.484;8.556;2023-06-26T11:03:45;28.50;94.20
18898;DHT22;9581;49.484;8.556;2023-06-26T11:06:12;28.50;93.20
18898;DHT22;9581;49.484;8.556;2023-06-26T11:08:46;28.60;93.30
18898;DHT22;9581;49.484;8.556;2023-06-26T11:11:13;28.60;93.70
18898;DHT22;9581;49.484;8.556;2023-06-26T11:13:40;28.50;93.80
18898;DHT22;9581;49.484;8.556;2023-06-26T11:16:08;28.50;93.50
18898;DHT22;9581;49.484;8.556;2023-06-26T11:18:35;28.80;93.00
18898;DHT22;9581;49.484;8.556;2023-06-26T11:21:07;29.00;94.00
18898;DHT22;9581;49.484;8.556;2023-06-26T11:23:36;29.20;92.90
18898;DHT22;9581;49.484;8.556;2023-06-26T11:26:16;29.40;92.90
18898;DHT22;9581;49.484;8.556;2023-06-26T11:28:47;29.50;93.80
18898;DHT22;9581;49.484;8.556;2023-06-26T11:31:24;29.70;93.00
18898;DHT22;9581;49.484;8.556;2023-06-26T11:33:51;29.90;92.90
18898;DHT22;9581;49.484;8.556;2023-06-26T11:36:19;30.20;93.70
18898;DHT22;9581;49.484;8.556;2023-06-26T11:38:46;30.10;93.00
18898;DHT22;9581;49.484;8.556;2023-06-26T11:41:18;30.00;92.70
18898;DHT22;9581;49.484;8.556;2023-06-26T11:43:45;30.20;91.80
18898;DHT22;9581;49.484;8.556;2023-06-26T11:46:12;30.30;90.80
18898;DHT22;9581;49.484;8.556;2023-06-26T11:48:39;30.10;90.80
18898;DHT22;9581;49.484;8.556;2023-06-26T11:51:05;30.30;90.30
18898;DHT22;9581;49.484;8.556;2023-06-26T11:53:39;30.30;90.40
18898;DHT22;9581;49.484;8.556;2023-06-26T11:56:10;30.50;91.00
18898;DHT22;9581;49.484;8.556;2023-06-26T11:58:58;30.80;90.00
18898;DHT22;9581;49.484;8.556;2023-06-26T12:01:27;30.80;89.10
18898;DHT22;9581;49.484;8.556;2023-06-26T12:03:59;30.90;87.50
18898;DHT22;9581;49.484;8.556;2023-06-26T12:06:27;30.90;86.80
18898;DHT22;9581;49.484;8.556;2023-06-26T12:08:55;30.80;85.50
18898;DHT22;9581;49.484;8.556;2023-06-26T12:11:23;30.80;86.10
18898;DHT22;9581;49.484;8.556;2023-06-26T12:13:51;30.90;87.20
18898;DHT22;9581;49.484;8.556;2023-06-26T12:16:19;31.10;87.50
18898;DHT22;9581;49.484;8.556;2023-06-26T12:18:46;31.10;89.50
18898;DHT22;9581;49.484;8.556;2023-06-26T12:21:28;31.40;87.30
18898;DHT22;9581;49.484;8.556;2023-06-26T12:24:00;31.40;82.00
18898;DHT22;9581;49.484;8.556;2023-06-26T12:26:27;31.30;80.50
18898;DHT22;9581;49.484;8.556;2023-06-26T12:29:01;31.30;83.30
18898;DHT22;9581;49.484;8.556;2023-06-26T12:31:27;31.30;82.60
18898;DHT22;9581;49.484;8.556;2023-06-26T12:33:54;31.30;78.60
18898;DHT22;9581;49.484;8.556;2023-06-26T12:36:21;31.30;78.50
18898;DHT22;9581;49.484;8.556;2023-06-26T12:38:48;31.40;80.00
18898;DHT22;9581;49.484;8.556;2023-06-26T12:41:17;31.40;77.20
18898;DHT22;9581;49.484;8.556;2023-06-26T12:43:46;31.30;80.00
18898;DHT22;9581;49.484;8.556;2023-06-26T12:46:12;31.30;79.70
18898;DHT22;9581;49.484;8.556;2023-06-26T12:48:40;31.30;78.70
18898;DHT22;9581;49.484;8.556;2023-06-26T12:51:10;31.30;76.10
18898;DHT22;9581;49.484;8.556;2023-06-26T12:53:37;31.40;76.60
18898;DHT22;9581;49.484;8.556;2023-06-26T12:56:05;31.70;80.00
18898;DHT22;9581;49.484;8.556;2023-06-26T12:58:33;31.60;74.60
18898;DHT22;9581;49.484;8.556;2023-06-26T13:01:02;31.50;74.70
18898;DHT22;9581;49.484;8.556;2023-06-26T13:03:29;31.70;74.70
18898;DHT22;9581;49.484;8.556;2023-06-26T13:05:56;31.80;77.90
18898;DHT22;9581;49.484;8.556;2023-06-26T13:08:23;31.60;72.70
18898;DHT22;9581;49.484;8.556;2023-06-26T13:10:50;31.60;72.40
18898;DHT22;9581;49.484;8.556;2023-06-26T13:13:16;31.50;73.30
18898;DHT22;9581;49.484;8.556;2023-06-26T13:15:44;31.70;73.80
18898;DHT22;9581;49.484;8.556;2023-06-26T13:18:11;31.50;74.40
18898;DHT22;9581;49.484;8.556;2023-06-26T13:20:38;31.60;72.40
18898;DHT22;9581;49.484;8.556;2023-06-26T13:23:05;31.80;73.50
18898;DHT22;9581;49.484;8.556;2023-06-26T13:25:32;31.60;72.40
18898;DHT22;9581;49.484;8.556;2023-06-26T13:27:59;31.10;75.30
18898;DHT22;9581;49.484;8.556;2023-06-26T13:30:26;31.10;73.20
18898;DHT22;9581;49.484;8.556;2023-06-26T13:32:54;31.30;72.10
18898;DHT22;9581;49.484;8.556;2023-06-26T13:35:21;31.10;73.10
18898;DHT22;9581;49.484;8.556;2023-06-26T13:37:48;31.20;74.70
18898;DHT22;9581;49.484;8.556;2023-06-26T13:40:15;31.40;74.60
18898;DHT22;9581;49.484;8.556;2023-06-26T13:42:42;31.60;75.20
18898;DHT22;9581;49.484;8.556;2023-06-26T13:45:10;31.50;73.60
18898;DHT22;9581;49.484;8.556;2023-06-26T13:47:37;31.30;73.60
18898;DHT22;9581;49.484;8.556;2023-06-26T13:50:10;31.30;74.00
18898;DHT22;9581;49.484;8.556;2023-06-26T13:52:37;31.30;75.00
18898;DHT22;9581;49.484;8.556;2023-06-26T13:55:04;31.50;71.00
18898;DHT22;9581;49.484;8.556;2023-06-26T13:57:31;31.10;69.30
18898;DHT22;9581;49.484;8.556;2023-06-26T13:59:58;31.20;69.30
18898;DHT22;9581;49.484;8.556;2023-06-26T14:02:25;31.10;69.00
18898;DHT22;9581;49.484;8.556;2023-06-26T14:04:52;31.30;70.00
18898;DHT22;9581;49.484;8.556;2023-06-26T14:07:20;31.20;70.10
18898;DHT22;9581;49.484;8.556;2023-06-26T14:09:47;31.20;69.70
18898;DHT22;9581;49.484;8.556;2023-06-26T14:12:14;31.30;69.60
18898;DHT22;9581;49.484;8.556;2023-06-26T14:14:41;31.30;68.40
18898;DHT22;9581;49.484;8.556;2023-06-26T14:17:08;31.20;67.80
18898;DHT22;9581;49.484;8.556;2023-06-26T14:19:36;31.20;67.20
18898;DHT22;9581;49.484;8.556;2023-06-26T14:22:03;31.00;66.80
18898;DHT22;9581;49.484;8.556;2023-06-26T14:24:31;31.10;67.10
18898;DHT22;9581;49.484;8.556;2023-06-26T14:26:58;31.10;64.30
18898;DHT22;9581;49.484;8.556;2023-06-26T14:29:24;31.00;65.90
18898;DHT22;9581;49.484;8.556;2023-06-26T14:31:51;31.00;64.40
18898;DHT22;9581;49.484;8.556;2023-06-26T14:34:18;30.90;62.30
18898;DHT22;9581;49.484;8.556;2023-06-26T14:36:45;30.70;61.10
18898;DHT22;9581;49.484;8.556;2023-06-26T14:39:12;30.60;60.90
18898;DHT22;9581;49.484;8.556;2023-06-26T14:41:40;30.60;60.50
18898;DHT22;9581;49.484;8.556;2023-06-26T14:44:06;30.20;59.40
18898;DHT22;9581;49.484;8.556;2023-06-26T14:46:35;30.10;58.80
18898;DHT22;9581;49.484;8.556;2023-06-26T14:49:02;30.20;59.30
18898;DHT22;9581;49.484;8.556;2023-06-26T14:51:29;30.10;59.40
18898;DHT22;9581;49.484;8.556;2023-06-26T14:53:55;30.20;58.30
18898;DHT22;9581;49.484;8.556;2023-06-26T14:56:22;30.40;60.50
18898;DHT22;9581;49.484;8.556;2023-06-26T14:58:51;30.80;60.00
18898;DHT22;9581;49.484;8.556;2023-06-26T15:01:17;31.40;58.50
18898;DHT22;9581;49.484;8.556;2023-06-26T15:03:45;31.50;58.50
18898;DHT22;9581;49.484;8.556;2023-06-26T15:06:11;31.70;57.20
18898;DHT22;9581;49.484;8.556;2023-06-26T15:08:38;31.30;57.00
18898;DHT22;9581;49.484;8.556;2023-06-26T15:11:05;31.30;57.60
18898;DHT22;9581;49.484;8.556;2023-06-26T15:13:32;31.30;56.20
18898;DHT22;9581;49.484;8.556;2023-06-26T15:16:01;31.10;57.30
18898;DHT22;9581;49.484;8.556;2023-06-26T15:18:27;30.60;56.90
18898;DHT22;9581;49.484;8.556;2023-06-26T15:20:54;30.30;59.50
18898;DHT22;9581;49.484;8.556;2023-06-26T15:23:21;29.80;57.40
18898;DHT22;9581;49.484;8.556;2023-06-26T15:25:47;29.90;58.80
18898;DHT22;9581;49.484;8.556;2023-06-26T15:28:14;30.20;58.80
18898;DHT22;9581;49.484;8.556;2023-06-26T15:30:41;30.20;59.10
18898;DHT22;9581;49.484;8.556;2023-06-26T15:33:09;30.10;58.90
18898;DHT22;9581;49.484;8.556;2023-06-26T15:35:36;30.20;59.80
18898;DHT22;9581;49.484;8.556;2023-06-26T15:38:02;30.30;60.60
18898;DHT22;9581;49.484;8.556;2023-06-26T15:40:29;30.20;58.70
18898;DHT22;9581;49.484;8.556;2023-06-26T15:42:56;30.20;59.40
18898;DHT22;9581;49.484;8.556;2023-06-26T15:45:23;30.10;58.30
18898;DHT22;9581;49.484;8.556;2023-06-26T15:47:51;30.10;59.10
18898;DHT22;9581;49.484;8.556;2023-06-26T15:50:20;30.10;59.20